createdAt,value
2023-03-19T00:02:21.429Z,10.80
2023-03-19T00:04:49.427Z,9.57
2023-03-19T00:07:18.009Z,10.30
2023-03-19T00:09:48.170Z,15.43
2023-03-19T00:12:17.248Z,11.67
2023-03-19T00:14:44.937Z,11.90
2023-03-19T00:17:12.566Z,8.93
2023-03-19T00:19:40.846Z,11.33
2023-03-19T00:22:08.613Z,11.57
2023-03-19T00:24:36.336Z,21.50
2023-03-19T00:27:05.532Z,20.00
2023-03-19T00:29:34.584Z,22.93
2023-03-19T00:32:02.332Z,15.10
2023-03-19T00:34:30.015Z,16.40
2023-03-19T00:36:57.632Z,15.10
2023-03-19T00:39:25.261Z,15.40
2023-03-19T00:41:53.551Z,16.23
2023-03-19T00:44:21.415Z,15.30
2023-03-19T00:46:50.660Z,12.67
2023-03-19T00:49:18.280Z,10.50
2023-03-19T00:51:45.879Z,10.30
2023-03-19T00:54:16.851Z,11.20
2023-03-19T00:56:44.505Z,16.00
2023-03-19T00:59:12.216Z,13.70
2023-03-19T01:01:39.968Z,7.97
2023-03-19T01:04:09.340Z,10.60
2023-03-19T01:06:36.930Z,7.80
2023-03-19T01:09:04.668Z,10.03
2023-03-19T01:11:32.285Z,8.53
2023-03-19T01:13:59.975Z,10.97
2023-03-19T01:16:27.592Z,8.03
2023-03-19T01:18:55.417Z,7.70
2023-03-19T01:21:24.303Z,7.13
2023-03-19T01:23:52.688Z,8.70
2023-03-19T01:26:20.744Z,11.23
2023-03-19T01:28:48.274Z,10.90
2023-03-19T01:31:16.422Z,8.63
2023-03-19T01:33:43.922Z,10.73
2023-03-19T01:36:12.286Z,7.60
2023-03-19T01:38:41.128Z,9.90
2023-03-19T01:41:09.517Z,9.60
2023-03-19T01:43:37.473Z,9.33
2023-03-19T01:46:07.321Z,10.47
2023-03-19T01:48:39.419Z,10.33
2023-03-19T01:51:08.273Z,10.07
2023-03-19T01:53:37.301Z,7.03
2023-03-19T01:56:10.396Z,8.03
2023-03-19T01:58:38.695Z,6.00
2023-03-19T02:01:06.550Z,8.07
2023-03-19T02:03:35.263Z,7.37
2023-03-19T02:06:02.798Z,8.83
2023-03-19T02:08:30.791Z,7.27
2023-03-19T02:11:00.193Z,7.27
2023-03-19T02:13:29.331Z,6.60
2023-03-19T02:15:56.952Z,7.93
2023-03-19T02:18:25.441Z,7.50
2023-03-19T02:20:59.934Z,6.13
2023-03-19T02:23:34.551Z,10.30
2023-03-19T02:26:07.803Z,7.40
2023-03-19T02:28:38.838Z,7.20
2023-03-19T02:31:07.311Z,9.20
2023-03-19T02:33:34.916Z,7.63
2023-03-19T02:36:04.100Z,8.83
2023-03-19T02:38:33.771Z,9.53
2023-03-19T02:41:04.409Z,7.63
2023-03-19T02:43:34.291Z,7.10
2023-03-19T02:46:02.029Z,7.30
2023-03-19T02:48:29.659Z,8.10
2023-03-19T02:50:57.111Z,7.13
2023-03-19T02:53:24.611Z,6.53
2023-03-19T02:55:52.088Z,9.00
2023-03-19T02:58:19.579Z,5.87
2023-03-19T03:00:48.502Z,7.07
2023-03-19T03:03:16.198Z,7.77
2023-03-19T03:05:43.650Z,6.83
2023-03-19T03:08:11.115Z,6.47
2023-03-19T03:10:38.857Z,6.00
2023-03-19T03:13:07.048Z,8.20
2023-03-19T03:15:34.533Z,8.73
2023-03-19T03:18:03.380Z,16.50
2023-03-19T03:20:30.893Z,14.13
2023-03-19T03:22:58.565Z,13.73
2023-03-19T03:25:26.046Z,14.40
2023-03-19T03:27:53.500Z,14.50
2023-03-19T03:30:21.064Z,12.77
2023-03-19T03:32:48.697Z,7.90
2023-03-19T03:35:21.869Z,6.57
2023-03-19T03:37:49.937Z,8.30
2023-03-19T03:40:17.527Z,6.40
2023-03-19T03:42:45.346Z,7.30
2023-03-19T03:45:13.084Z,6.33
2023-03-19T03:47:40.868Z,7.97
2023-03-19T03:50:10.785Z,8.17
2023-03-19T03:52:40.882Z,5.83
2023-03-19T03:55:09.878Z,7.07
2023-03-19T03:57:37.703Z,8.07
2023-03-19T04:00:05.942Z,6.33
2023-03-19T04:02:33.512Z,8.13
2023-03-19T04:05:01.039Z,7.60
2023-03-19T04:07:28.562Z,6.40
2023-03-19T04:09:59.279Z,8.93
2023-03-19T04:12:27.127Z,6.97
2023-03-19T04:14:54.598Z,8.27
2023-03-19T04:17:22.336Z,6.43
2023-03-19T04:19:49.821Z,9.30
2023-03-19T04:22:17.292Z,15.33
2023-03-19T04:24:44.763Z,5.97
2023-03-19T04:27:13.623Z,7.27
2023-03-19T04:29:41.243Z,8.27
2023-03-19T04:32:09.015Z,9.37
2023-03-19T04:34:37.291Z,7.13
2023-03-19T04:37:04.821Z,8.37
2023-03-19T04:39:34.755Z,11.37
2023-03-19T04:42:02.222Z,10.97
2023-03-19T04:44:31.535Z,8.67
2023-03-19T04:46:59.081Z,10.40
2023-03-19T04:49:27.409Z,11.20
2023-03-19T04:51:54.918Z,9.77
2023-03-19T04:54:22.435Z,11.00
2023-03-19T04:56:49.945Z,10.00
2023-03-19T04:59:17.565Z,12.17
2023-03-19T05:01:46.428Z,12.40
2023-03-19T05:04:13.948Z,12.43
2023-03-19T05:06:41.706Z,14.93
2023-03-19T05:09:09.208Z,11.37
2023-03-19T05:11:36.833Z,13.47
2023-03-19T05:14:04.843Z,13.27
2023-03-19T05:16:32.941Z,11.30
2023-03-19T05:19:01.719Z,13.07
2023-03-19T05:21:29.203Z,11.40
2023-03-19T05:23:57.182Z,12.23
2023-03-19T05:26:24.933Z,10.63
2023-03-19T05:28:52.400Z,9.13
2023-03-19T05:31:19.964Z,9.33
2023-03-19T05:33:47.482Z,8.17
2023-03-19T05:36:16.856Z,10.10
2023-03-19T05:38:44.417Z,7.50
2023-03-19T05:41:11.868Z,8.50
2023-03-19T05:43:39.517Z,8.87
2023-03-19T05:46:07.021Z,11.13
2023-03-19T05:48:34.657Z,9.70
2023-03-19T05:51:02.109Z,9.67
2023-03-19T05:53:30.956Z,7.07
2023-03-19T05:55:58.517Z,9.10
2023-03-19T05:58:25.994Z,8.23
2023-03-19T06:00:56.088Z,7.47
2023-03-19T06:03:23.593Z,11.47
2023-03-19T06:05:51.241Z,8.97
2023-03-19T06:08:18.859Z,9.27
2023-03-19T06:10:47.701Z,8.97
2023-03-19T06:13:15.148Z,9.93
2023-03-19T06:15:42.673Z,9.67
2023-03-19T06:18:10.198Z,9.13
2023-03-19T06:20:37.751Z,9.27
2023-03-19T06:23:05.531Z,10.00
2023-03-19T06:25:32.998Z,10.83
2023-03-19T06:28:01.816Z,9.23
2023-03-19T06:30:29.345Z,9.00
2023-03-19T06:32:56.840Z,10.37
2023-03-19T06:35:24.485Z,8.60
2023-03-19T06:37:52.280Z,10.00
2023-03-19T06:40:20.001Z,8.67
2023-03-19T06:42:48.112Z,11.30
2023-03-19T06:45:18.860Z,8.43
2023-03-19T06:47:46.949Z,8.20
2023-03-19T06:50:16.313Z,17.00
2023-03-19T06:52:43.848Z,9.60
2023-03-19T06:55:11.661Z,9.30
2023-03-19T06:57:39.233Z,8.50
2023-03-19T07:00:10.347Z,7.60
2023-03-19T07:02:40.011Z,6.50
2023-03-19T07:05:07.971Z,7.43
2023-03-19T07:07:35.722Z,7.40
2023-03-19T07:10:03.802Z,6.17
2023-03-19T07:12:31.513Z,7.57
2023-03-19T07:14:59.060Z,7.20
2023-03-19T07:17:26.863Z,7.53
2023-03-19T07:19:55.812Z,8.63
2023-03-19T07:22:23.612Z,9.47
2023-03-19T07:24:51.492Z,10.27
2023-03-19T07:27:19.151Z,6.73
2023-03-19T07:29:46.816Z,6.73
2023-03-19T07:32:14.888Z,7.97
2023-03-19T07:34:42.516Z,8.90
2023-03-19T07:37:11.581Z,7.23
2023-03-19T07:39:39.244Z,7.70
2023-03-19T07:42:07.108Z,8.83
2023-03-19T07:44:34.752Z,8.20
2023-03-19T07:47:02.306Z,8.30
2023-03-19T07:49:29.897Z,8.43
2023-03-19T07:51:57.467Z,9.73
2023-03-19T07:54:26.587Z,7.23
2023-03-19T07:56:54.285Z,7.10
2023-03-19T07:59:22.058Z,9.93
2023-03-19T08:01:49.651Z,9.93
2023-03-19T08:04:17.522Z,9.60
2023-03-19T08:06:45.107Z,6.10
2023-03-19T08:09:13.268Z,5.97
2023-03-19T08:11:42.135Z,8.40
2023-03-19T08:14:09.811Z,10.97
2023-03-19T08:16:37.411Z,12.00
2023-03-19T08:19:04.930Z,6.67
2023-03-19T08:21:33.640Z,5.70
2023-03-19T08:24:03.139Z,6.27
2023-03-19T08:26:32.841Z,6.83
2023-03-19T08:29:01.793Z,6.60
2023-03-19T08:31:29.351Z,5.10
2023-03-19T08:33:59.955Z,5.60
2023-03-19T08:36:28.080Z,5.60
2023-03-19T08:38:55.832Z,5.63
2023-03-19T08:41:23.834Z,5.47
2023-03-19T08:43:51.305Z,6.23
2023-03-19T08:46:20.834Z,6.53
2023-03-19T08:48:48.359Z,5.57
2023-03-19T08:51:15.918Z,5.67
2023-03-19T08:53:43.429Z,5.10
2023-03-19T08:56:10.911Z,5.53
2023-03-19T08:58:38.393Z,7.97
2023-03-19T09:01:07.700Z,6.57
2023-03-19T09:03:36.804Z,5.00
2023-03-19T09:06:06.065Z,5.30
2023-03-19T09:08:34.109Z,6.30
2023-03-19T09:11:01.606Z,6.30
2023-03-19T09:13:29.125Z,4.00
2023-03-19T09:15:56.762Z,8.00
2023-03-19T09:18:25.436Z,6.20
2023-03-19T09:20:55.147Z,6.70
2023-03-19T09:23:23.112Z,4.80
2023-03-19T09:25:51.005Z,4.67
2023-03-19T09:28:18.968Z,3.60
2023-03-19T09:30:47.577Z,6.20
2023-03-19T09:33:15.902Z,4.17
2023-03-19T09:35:43.549Z,5.80
2023-03-19T09:38:12.386Z,6.07
2023-03-19T09:40:42.859Z,6.30
2023-03-19T09:43:32.968Z,6.00
2023-03-19T09:46:03.011Z,5.27
2023-03-19T09:48:34.772Z,5.13
2023-03-19T09:51:04.310Z,5.23
2023-03-19T09:53:39.175Z,4.87
2023-03-19T09:56:08.492Z,3.50
2023-03-19T09:58:37.216Z,4.40
2023-03-19T10:01:05.990Z,3.80
2023-03-19T10:03:44.729Z,3.87
2023-03-19T10:06:23.421Z,5.30
2023-03-19T10:09:03.065Z,5.33
2023-03-19T10:11:38.156Z,5.13
2023-03-19T10:14:18.185Z,3.53
2023-03-19T10:16:47.831Z,4.73
2023-03-19T10:19:18.232Z,6.83
2023-03-19T10:21:49.996Z,4.57
2023-03-19T10:24:23.032Z,4.97
2023-03-19T10:26:52.061Z,5.10
2023-03-19T10:29:21.849Z,3.77
2023-03-19T10:31:53.547Z,5.47
2023-03-19T10:34:31.114Z,6.90
2023-03-19T10:37:03.750Z,4.23
2023-03-19T10:39:34.140Z,6.20
2023-03-19T10:42:11.228Z,4.10
2023-03-19T10:44:43.761Z,3.60
2023-03-19T10:47:12.762Z,4.40
2023-03-19T10:49:40.637Z,3.30
2023-03-19T10:52:21.709Z,4.03
2023-03-19T10:54:56.431Z,2.63
2023-03-19T10:57:27.382Z,5.30
2023-03-19T10:59:55.292Z,4.20
2023-03-19T11:02:27.196Z,2.70
2023-03-19T11:05:08.553Z,4.40
2023-03-19T11:07:37.195Z,3.30
2023-03-19T11:10:07.559Z,2.73
2023-03-19T11:12:37.312Z,3.80
2023-03-19T11:15:07.419Z,3.60
2023-03-19T11:17:39.228Z,3.00
2023-03-19T11:20:20.697Z,5.90
2023-03-19T11:22:48.410Z,5.27
2023-03-19T11:25:19.765Z,5.23
2023-03-19T11:27:59.067Z,3.43
2023-03-19T11:30:28.643Z,4.43
2023-03-19T11:33:19.204Z,4.57
2023-03-19T11:35:52.636Z,4.10
2023-03-19T11:38:26.350Z,4.37
2023-03-19T11:41:01.990Z,7.70
2023-03-19T11:43:45.446Z,7.40
2023-03-19T11:46:26.252Z,5.20
2023-03-19T11:49:07.994Z,3.67
2023-03-19T11:51:40.006Z,6.40
2023-03-19T11:54:13.681Z,3.77
2023-03-19T11:56:44.602Z,6.77
2023-03-19T11:59:27.237Z,5.13
2023-03-19T12:02:23.816Z,2.70
2023-03-19T12:05:01.554Z,2.43
2023-03-19T12:07:33.918Z,3.27
2023-03-19T12:10:08.474Z,3.03
2023-03-19T12:12:41.388Z,2.70
2023-03-19T12:15:15.599Z,4.60
2023-03-19T12:17:50.722Z,2.80
2023-03-19T12:20:24.155Z,3.60
2023-03-19T12:23:01.339Z,3.33
2023-03-19T12:25:40.352Z,4.37
2023-03-19T12:28:16.155Z,4.60
2023-03-19T12:30:46.473Z,4.23
2023-03-19T12:33:35.320Z,5.60
2023-03-19T12:36:04.682Z,3.10
2023-03-19T12:38:37.281Z,5.70
2023-03-19T12:41:07.697Z,3.07
2023-03-19T12:43:39.972Z,5.07
2023-03-19T12:46:11.326Z,5.03
2023-03-19T12:48:42.821Z,3.80
2023-03-19T12:51:13.775Z,4.03
2023-03-19T12:53:46.199Z,3.83
2023-03-19T12:56:18.554Z,4.60
2023-03-19T12:58:54.472Z,5.40
2023-03-19T13:01:25.698Z,5.00
2023-03-19T13:03:56.596Z,4.80
2023-03-19T13:06:28.126Z,3.67
2023-03-19T13:08:58.945Z,6.63
2023-03-19T13:11:35.832Z,3.40
2023-03-19T13:14:09.468Z,3.90
2023-03-19T13:16:42.184Z,3.27
2023-03-19T13:19:18.268Z,3.77
2023-03-19T13:21:47.218Z,4.20
2023-03-19T13:24:21.085Z,2.90
2023-03-19T13:26:49.344Z,2.97
2023-03-19T13:29:21.387Z,3.27
2023-03-19T13:31:49.427Z,4.77
2023-03-19T13:34:23.172Z,4.60
2023-03-19T13:36:55.039Z,2.87
2023-03-19T13:39:27.329Z,1.60
2023-03-19T13:42:08.046Z,4.63
2023-03-19T13:44:43.239Z,2.80
2023-03-19T13:47:39.399Z,2.83
2023-03-19T13:50:28.580Z,1.80
2023-03-19T13:53:13.615Z,2.60
2023-03-19T13:55:52.279Z,1.97
2023-03-19T13:58:43.252Z,3.83
2023-03-19T14:01:13.951Z,3.13
2023-03-19T14:03:42.428Z,3.20
2023-03-19T14:06:35.821Z,2.57
2023-03-19T14:09:05.111Z,2.27
2023-03-19T14:11:34.477Z,2.90
2023-03-19T14:14:04.346Z,3.23
2023-03-19T14:16:35.438Z,1.50
2023-03-19T14:19:05.148Z,2.97
2023-03-19T14:21:36.095Z,1.23
2023-03-19T14:24:55.217Z,2.33
2023-03-19T14:27:19.725Z,2.97
2023-03-19T14:29:48.264Z,1.33
2023-03-19T14:32:18.899Z,2.30
2023-03-19T14:34:47.505Z,2.27
2023-03-19T14:37:20.769Z,3.60
2023-03-19T14:39:51.491Z,2.13
2023-03-19T14:42:21.469Z,2.80
2023-03-19T14:45:15.822Z,3.13
2023-03-19T14:48:09.866Z,3.90
2023-03-19T14:50:48.811Z,2.83
2023-03-19T14:53:19.253Z,3.13
2023-03-19T14:55:51.031Z,3.40
2023-03-19T14:58:20.266Z,1.60
2023-03-19T15:00:50.594Z,3.00
2023-03-19T15:03:30.758Z,3.23
2023-03-19T15:05:59.405Z,2.70
2023-03-19T15:08:27.610Z,4.27
2023-03-19T15:11:06.988Z,9.90
2023-03-19T15:13:50.883Z,2.83
2023-03-19T15:16:29.609Z,2.83
2023-03-19T15:18:59.155Z,2.83
2023-03-19T15:21:26.644Z,2.30
2023-03-19T15:23:54.194Z,2.30
2023-03-19T15:26:31.464Z,3.37
2023-03-19T15:28:58.927Z,2.70
2023-03-19T15:31:51.004Z,2.20
2023-03-19T15:34:24.349Z,1.70
2023-03-19T15:36:54.466Z,2.10
2023-03-19T15:39:23.362Z,1.53
2023-03-19T15:41:51.673Z,1.63
2023-03-19T15:44:23.034Z,1.23
2023-03-19T15:46:51.058Z,1.70
2023-03-19T15:49:24.204Z,3.03
2023-03-19T15:51:54.106Z,1.20
2023-03-19T15:54:22.007Z,1.50
2023-03-19T15:56:50.462Z,1.80
2023-03-19T15:59:19.499Z,1.67
2023-03-19T16:01:47.234Z,1.60
2023-03-19T16:04:19.694Z,2.07
2023-03-19T16:06:49.638Z,2.00
2023-03-19T16:09:24.633Z,9.47
2023-03-19T16:11:52.611Z,1.83
2023-03-19T16:14:25.594Z,1.40
2023-03-19T16:16:54.338Z,1.60
2023-03-19T16:19:31.015Z,2.60
2023-03-19T16:22:00.190Z,1.67
2023-03-19T16:24:30.931Z,1.23
2023-03-19T16:26:59.127Z,1.20
2023-03-19T16:29:27.600Z,1.80
2023-03-19T16:31:59.586Z,1.73
2023-03-19T16:34:32.460Z,2.33
2023-03-19T16:37:03.149Z,1.43
2023-03-19T16:39:35.068Z,1.93
2023-03-19T16:42:17.696Z,1.77
2023-03-19T16:44:48.170Z,2.50
2023-03-19T16:47:19.209Z,3.00
2023-03-19T16:49:47.334Z,1.40
2023-03-19T16:52:18.394Z,3.67
2023-03-19T16:54:46.398Z,1.77
2023-03-19T16:57:15.304Z,1.70
2023-03-19T16:59:43.211Z,2.70
2023-03-19T17:02:12.139Z,3.20
2023-03-19T17:04:39.904Z,2.13
2023-03-19T17:07:07.815Z,2.13
2023-03-19T17:09:36.791Z,2.00
2023-03-19T17:12:06.527Z,1.63
2023-03-19T17:14:34.540Z,2.03
2023-03-19T17:17:02.676Z,4.53
2023-03-19T17:19:34.585Z,2.33
2023-03-19T17:22:02.658Z,1.73
2023-03-19T17:24:31.814Z,2.63
2023-03-19T17:27:02.222Z,1.70
2023-03-19T17:29:30.428Z,1.97
2023-03-19T17:32:01.440Z,2.20
2023-03-19T17:34:31.780Z,5.80
2023-03-19T17:37:01.134Z,3.20
2023-03-19T17:39:31.308Z,2.10
2023-03-19T17:41:59.049Z,2.90
2023-03-19T17:44:28.050Z,3.20
2023-03-19T17:46:55.848Z,4.27
2023-03-19T17:49:26.101Z,2.60
2023-03-19T17:51:53.604Z,2.60
2023-03-19T17:54:21.281Z,1.73
2023-03-19T17:56:49.162Z,1.90
2023-03-19T17:59:16.620Z,3.43
2023-03-19T18:01:47.121Z,1.87
2023-03-19T18:04:16.480Z,2.80
2023-03-19T18:06:46.306Z,3.00
2023-03-19T18:09:18.895Z,4.10
2023-03-19T18:11:46.662Z,2.83
2023-03-19T18:14:14.174Z,2.50
2023-03-19T18:16:41.910Z,2.60
2023-03-19T18:19:19.591Z,2.50
2023-03-19T18:21:47.137Z,4.53
2023-03-19T18:24:14.625Z,2.30
2023-03-19T18:26:42.131Z,2.00
2023-03-19T18:29:09.988Z,3.17
2023-03-19T18:31:37.731Z,2.00
2023-03-19T18:34:07.637Z,1.80
2023-03-19T18:36:36.662Z,2.33
2023-03-19T18:39:04.656Z,2.00
2023-03-19T18:41:32.476Z,2.73
2023-03-19T18:43:59.934Z,3.33
2023-03-19T18:46:29.960Z,2.23
2023-03-19T18:48:59.529Z,2.97
2023-03-19T18:51:28.581Z,1.97
2023-03-19T18:53:57.477Z,3.73
2023-03-19T18:56:27.312Z,2.73
2023-03-19T18:58:55.228Z,2.63
2023-03-19T19:01:23.481Z,2.40
2023-03-19T19:03:51.406Z,2.13
2023-03-19T19:06:26.334Z,2.23
2023-03-19T19:08:57.609Z,2.53
2023-03-19T19:11:25.137Z,1.13
2023-03-19T19:13:56.428Z,1.30
2023-03-19T19:16:28.182Z,1.83
2023-03-19T19:18:55.696Z,2.30
2023-03-19T19:21:23.193Z,2.50
2023-03-19T19:23:50.758Z,1.80
2023-03-19T19:26:23.348Z,2.23
2023-03-19T19:28:52.011Z,1.73
2023-03-19T19:31:24.676Z,2.97
2023-03-19T19:33:52.591Z,3.27
2023-03-19T19:36:20.966Z,4.50
2023-03-19T19:38:49.179Z,2.53
2023-03-19T19:41:17.972Z,2.13
2023-03-19T19:43:47.554Z,3.43
2023-03-19T19:46:16.506Z,2.77
2023-03-19T19:48:44.049Z,2.67
2023-03-19T19:51:19.253Z,3.73
2023-03-19T19:53:47.069Z,3.33
2023-03-19T19:56:16.657Z,3.10
2023-03-19T19:58:44.766Z,3.30
2023-03-19T20:01:17.625Z,3.77
2023-03-19T20:03:46.170Z,5.40
2023-03-19T20:06:14.383Z,4.07
2023-03-19T20:08:42.332Z,3.67
2023-03-19T20:11:15.304Z,2.40
2023-03-19T20:13:44.253Z,3.50
2023-03-19T20:16:12.663Z,3.77
2023-03-19T20:18:43.522Z,3.60
2023-03-19T20:21:12.339Z,3.30
2023-03-19T20:23:41.273Z,3.30
2023-03-19T20:26:12.410Z,3.33
2023-03-19T20:28:39.932Z,3.10
2023-03-19T20:31:07.564Z,8.60
2023-03-19T20:33:37.253Z,2.50
2023-03-19T20:36:07.229Z,2.63
2023-03-19T20:38:36.607Z,4.13
2023-03-19T20:41:04.498Z,5.20
2023-03-19T20:43:33.511Z,2.93
2023-03-19T20:46:04.150Z,3.20
2023-03-19T20:48:32.818Z,3.57
2023-03-19T20:51:01.873Z,3.90
2023-03-19T20:53:31.033Z,2.17
2023-03-19T20:55:59.970Z,2.83
2023-03-19T20:58:29.600Z,4.20
2023-03-19T21:00:57.772Z,5.00
2023-03-19T21:03:27.049Z,4.83
2023-03-19T21:05:57.991Z,5.87
2023-03-19T21:08:33.285Z,5.47
2023-03-19T21:11:01.637Z,3.87
2023-03-19T21:13:29.384Z,6.53
2023-03-19T21:15:57.037Z,4.23
2023-03-19T21:18:24.637Z,6.83
2023-03-19T21:20:54.853Z,6.70
2023-03-19T21:23:26.797Z,5.70
2023-03-19T21:25:55.787Z,5.80
2023-03-19T21:28:25.313Z,5.57
2023-03-19T21:30:53.237Z,7.50
2023-03-19T21:33:24.349Z,6.60
2023-03-19T21:35:52.531Z,7.80
2023-03-19T21:38:20.300Z,7.20
2023-03-19T21:40:47.856Z,5.67
2023-03-19T21:43:20.796Z,5.03
2023-03-19T21:45:49.458Z,4.23
2023-03-19T21:48:24.341Z,5.10
2023-03-19T21:50:52.426Z,4.47
2023-03-19T21:53:20.350Z,4.70
2023-03-19T21:55:48.085Z,3.90
2023-03-19T21:58:19.144Z,4.77
2023-03-19T22:00:47.167Z,4.00
2023-03-19T22:03:18.255Z,4.33
2023-03-19T22:05:46.576Z,6.47
2023-03-19T22:08:16.075Z,3.67
2023-03-19T22:10:44.534Z,2.83
2023-03-19T22:13:21.495Z,3.40
2023-03-19T22:15:49.639Z,6.00
2023-03-19T22:18:17.520Z,4.10
2023-03-19T22:20:45.101Z,6.47
2023-03-19T22:23:13.577Z,4.40
2023-03-19T22:25:43.027Z,7.00
2023-03-19T22:28:16.807Z,3.50
2023-03-19T22:30:46.166Z,3.50
2023-03-19T22:33:15.941Z,3.93
2023-03-19T22:35:43.786Z,3.77
2023-03-19T22:38:11.698Z,4.13
2023-03-19T22:40:40.016Z,4.07
2023-03-19T22:43:17.264Z,4.30
2023-03-19T22:45:46.244Z,2.90
2023-03-19T22:48:15.441Z,4.13
2023-03-19T22:50:43.787Z,2.73
2023-03-19T22:53:22.220Z,2.67
2023-03-19T22:55:49.858Z,4.20
2023-03-19T22:58:17.816Z,4.43
2023-03-19T23:00:47.090Z,3.03
2023-03-19T23:03:18.703Z,3.60
2023-03-19T23:05:47.093Z,3.83
2023-03-19T23:08:17.368Z,4.63
2023-03-19T23:10:44.962Z,3.47
2023-03-19T23:13:13.756Z,2.80
2023-03-19T23:15:41.833Z,5.50
2023-03-19T23:18:17.282Z,3.50
2023-03-19T23:20:44.877Z,3.67
2023-03-19T23:23:13.543Z,4.30
2023-03-19T23:25:41.411Z,4.40
2023-03-19T23:28:17.147Z,3.70
2023-03-19T23:30:46.211Z,2.77
2023-03-19T23:33:15.722Z,3.90
2023-03-19T23:35:43.716Z,2.50
2023-03-19T23:38:12.583Z,4.67
2023-03-19T23:40:43.882Z,4.00
2023-03-19T23:43:18.250Z,4.23
2023-03-19T23:45:46.673Z,4.10
2023-03-19T23:48:17.098Z,4.50
2023-03-19T23:50:48.446Z,5.20
2023-03-19T23:53:19.583Z,4.03
2023-03-19T23:55:48.257Z,3.40
2023-03-19T23:58:16.414Z,5.73
